createdAt,value
2019-05-14T00:00:14.313Z,0.0795
2019-05-14T00:01:17.244Z,0.0000
2019-05-14T00:02:21.402Z,0.0000
2019-05-14T00:03:24.292Z,0.0624
2019-05-14T00:04:27.332Z,0.0000
2019-05-14T00:05:32.196Z,0.0159
2019-05-14T00:06:34.287Z,0.2168
2019-05-14T00:07:37.303Z,0.0487
2019-05-14T00:08:41.804Z,0.0160
2019-05-14T00:09:45.343Z,0.0000
2019-05-14T00:10:48.262Z,0.0794
2019-05-14T00:11:51.412Z,0.0000
2019-05-14T00:12:54.270Z,0.0637
2019-05-14T00:13:57.309Z,0.2240
2019-05-14T00:15:02.134Z,0.0160
2019-05-14T00:16:05.308Z,0.1701
2019-05-14T00:17:08.307Z,0.0479
2019-05-14T00:18:11.727Z,0.0639
2019-05-14T00:19:15.304Z,0.2374
2019-05-14T00:20:18.329Z,0.1744
2019-05-14T00:21:21.295Z,0.2552
2019-05-14T00:22:24.274Z,0.1118
2019-05-14T00:23:27.297Z,0.0479
2019-05-14T00:24:32.254Z,0.0957
2019-05-14T00:25:35.342Z,0.3704
2019-05-14T00:26:39.342Z,0.1759
2019-05-14T00:27:42.294Z,0.2985
2019-05-14T00:28:45.288Z,0.1757
2019-05-14T00:29:48.317Z,0.2554
2019-05-14T00:30:52.379Z,0.0638
2019-05-14T00:31:55.286Z,0.0156
2019-05-14T00:32:58.354Z,0.1765
2019-05-14T00:34:01.734Z,0.0797
2019-05-14T00:35:05.319Z,0.0475
2019-05-14T00:36:08.274Z,0.0158
2019-05-14T00:37:11.684Z,0.3195
2019-05-14T00:38:14.293Z,0.1267
2019-05-14T00:39:16.340Z,0.0161
2019-05-14T00:40:19.351Z,0.0162
2019-05-14T00:41:23.342Z,0.1437
2019-05-14T00:42:26.325Z,0.1886
2019-05-14T00:43:29.290Z,0.0000
2019-05-14T00:44:32.558Z,0.0479
2019-05-14T00:45:35.347Z,0.0953
2019-05-14T00:46:38.319Z,0.0160
2019-05-14T00:47:41.917Z,0.1597
2019-05-14T00:48:45.261Z,0.0316
2019-05-14T00:49:48.354Z,0.0000
2019-05-14T00:50:51.778Z,0.1594
2019-05-14T00:51:55.295Z,0.1109
2019-05-14T00:52:58.303Z,0.1110
2019-05-14T00:54:01.701Z,0.0000
2019-05-14T00:55:05.274Z,0.0158
2019-05-14T00:56:08.356Z,0.0159
2019-05-14T00:57:11.836Z,0.0000
2019-05-14T00:58:16.285Z,0.0158
2019-05-14T00:59:21.520Z,0.0000
2019-05-14T01:00:23.274Z,0.0000
2019-05-14T01:01:26.344Z,0.0816
2019-05-14T01:02:29.271Z,0.0478
2019-05-14T01:03:32.610Z,0.0160
2019-05-14T01:04:35.278Z,0.0159
2019-05-14T01:05:38.283Z,0.0803
2019-05-14T01:06:42.033Z,0.0000
2019-05-14T01:07:45.317Z,0.0000
2019-05-14T01:08:47.348Z,0.0319
2019-05-14T01:09:52.397Z,0.0162
2019-05-14T01:10:55.329Z,0.1851
2019-05-14T01:11:58.301Z,0.1441
2019-05-14T01:13:01.437Z,0.0000
2019-05-14T01:14:04.308Z,0.0000
2019-05-14T01:15:10.745Z,0.0000
2019-05-14T01:16:15.327Z,0.0000
2019-05-14T01:17:18.330Z,0.0000
2019-05-14T01:18:21.888Z,0.0000
2019-05-14T01:19:25.293Z,0.0000
2019-05-14T01:20:27.328Z,0.0000
2019-05-14T01:21:31.218Z,0.0000
2019-05-14T01:22:34.307Z,0.0000
2019-05-14T01:23:37.307Z,0.0160
2019-05-14T01:24:41.719Z,0.0000
2019-05-14T01:25:47.317Z,0.0467
2019-05-14T01:26:52.250Z,0.0154
2019-05-14T01:27:55.291Z,0.0000
2019-05-14T01:28:58.277Z,0.0160
2019-05-14T01:30:02.039Z,0.0160
2019-05-14T01:31:05.296Z,0.0000
2019-05-14T01:32:08.332Z,0.0000
2019-05-14T01:33:11.874Z,0.0000
2019-05-14T01:34:15.318Z,0.0158
2019-05-14T01:35:18.278Z,0.0000
2019-05-14T01:36:21.577Z,0.0000
2019-05-14T01:37:24.278Z,0.0000
2019-05-14T01:38:27.323Z,0.0161
2019-05-14T01:39:32.093Z,0.0000
2019-05-14T01:40:35.279Z,0.0155
2019-05-14T01:41:38.325Z,0.0160
2019-05-14T01:42:41.741Z,0.0000
2019-05-14T01:43:45.299Z,0.0159
2019-05-14T01:44:48.278Z,0.2695
2019-05-14T01:45:52.454Z,0.0319
2019-05-14T01:46:55.261Z,0.2031
2019-05-14T01:47:58.307Z,0.0161
2019-05-14T01:49:01.659Z,0.0000
2019-05-14T01:50:04.286Z,0.0794
2019-05-14T01:51:07.338Z,0.0000
2019-05-14T01:52:11.277Z,0.0319
2019-05-14T01:53:14.318Z,0.0000
2019-05-14T01:54:17.284Z,0.0160
2019-05-14T01:55:21.905Z,0.0000
2019-05-14T01:56:25.316Z,0.0466
2019-05-14T01:57:28.317Z,0.0159
2019-05-14T01:58:31.358Z,0.0000
2019-05-14T01:59:34.293Z,0.0000
2019-05-14T02:00:37.318Z,0.6242
2019-05-14T02:01:41.503Z,0.0958
2019-05-14T02:02:44.314Z,0.0000
2019-05-14T02:03:47.274Z,0.0000
2019-05-14T02:04:51.330Z,0.0000
2019-05-14T02:05:54.304Z,0.2034
2019-05-14T02:06:57.328Z,0.0961
2019-05-14T02:08:01.714Z,0.0160
2019-05-14T02:09:05.290Z,0.0000
2019-05-14T02:10:08.296Z,0.0318
2019-05-14T02:11:12.121Z,0.3512
2019-05-14T02:12:15.381Z,0.0000
2019-05-14T02:13:18.268Z,0.3824
2019-05-14T02:14:22.030Z,0.3039
2019-05-14T02:15:36.305Z,0.5983
2019-05-14T02:16:33.279Z,0.0295
2019-05-14T02:17:36.281Z,0.1595
2019-05-14T02:18:41.457Z,0.5584
2019-05-14T02:19:44.274Z,0.0462
2019-05-14T02:20:47.275Z,0.1124
2019-05-14T02:21:51.436Z,0.2234
2019-05-14T02:22:54.259Z,0.3753
2019-05-14T02:23:56.311Z,0.0321
2019-05-14T02:24:59.264Z,0.1296
2019-05-14T02:26:02.690Z,0.1438
2019-05-14T02:27:06.315Z,0.0791
2019-05-14T02:28:11.414Z,0.0000
2019-05-14T02:29:14.284Z,0.2926
2019-05-14T02:30:20.282Z,0.4493
2019-05-14T02:31:25.288Z,0.2072
2019-05-14T02:32:29.753Z,0.0638
2019-05-14T02:33:33.310Z,0.0311
2019-05-14T02:34:39.459Z,0.0000
2019-05-14T02:35:43.323Z,0.2112
2019-05-14T02:36:49.425Z,0.0159
2019-05-14T02:37:52.337Z,0.0151
2019-05-14T02:38:55.291Z,0.0643
2019-05-14T02:39:59.667Z,0.4632
2019-05-14T02:41:03.317Z,0.2180
2019-05-14T02:42:09.570Z,0.1110
2019-05-14T02:43:13.313Z,0.1057
2019-05-14T02:44:18.881Z,0.0317
2019-05-14T02:45:21.272Z,0.0459
2019-05-14T02:46:24.339Z,0.0000
2019-05-14T02:47:29.885Z,0.3346
2019-05-14T02:48:33.401Z,0.2606
2019-05-14T02:49:39.340Z,0.0000
2019-05-14T02:50:43.285Z,0.0000
2019-05-14T02:51:50.070Z,0.0794
2019-05-14T02:52:53.348Z,0.0150
2019-05-14T02:53:58.919Z,0.0000
2019-05-14T02:55:02.297Z,0.0458
2019-05-14T02:56:05.313Z,0.1116
2019-05-14T02:57:10.378Z,0.7660
2019-05-14T02:58:14.329Z,0.0153
2019-05-14T02:59:19.599Z,0.0158
2019-05-14T03:00:23.305Z,0.0614
2019-05-14T03:01:26.285Z,0.0000
2019-05-14T03:02:29.808Z,0.2875
2019-05-14T03:03:33.302Z,0.0000
2019-05-14T03:04:39.181Z,0.1585
2019-05-14T03:05:42.300Z,0.0758
2019-05-14T03:06:45.317Z,0.1926
2019-05-14T03:07:49.989Z,0.0798
2019-05-14T03:08:53.343Z,0.1082
2019-05-14T03:09:59.194Z,0.3035
2019-05-14T03:11:01.330Z,0.0152
2019-05-14T03:12:04.291Z,0.2435
2019-05-14T03:13:09.493Z,0.1758
2019-05-14T03:14:12.319Z,0.0000
2019-05-14T03:15:15.308Z,0.0161
2019-05-14T03:16:26.036Z,0.0000
2019-05-14T03:17:29.768Z,0.0000
2019-05-14T03:18:33.370Z,0.1655
2019-05-14T03:19:36.275Z,0.0000
2019-05-14T03:20:39.019Z,0.0959
2019-05-14T03:21:42.303Z,0.0159
2019-05-14T03:23:01.365Z,0.0000
2019-05-14T03:23:53.326Z,0.0000
2019-05-14T03:24:59.621Z,0.0478
2019-05-14T03:26:03.312Z,0.0000
2019-05-14T03:27:09.322Z,0.0000
2019-05-14T03:28:13.327Z,0.0151
2019-05-14T03:29:19.351Z,0.0159
2019-05-14T03:30:23.498Z,0.1515
2019-05-14T03:31:32.255Z,0.0628
2019-05-14T03:32:34.297Z,0.0149
2019-05-14T03:33:43.010Z,0.0000
2019-05-14T03:34:45.305Z,0.0148
2019-05-14T03:35:56.360Z,0.0000
2019-05-14T03:37:02.367Z,0.0889
2019-05-14T03:38:04.315Z,0.0000
2019-05-14T03:39:10.251Z,0.0000
2019-05-14T03:40:13.297Z,0.0000
2019-05-14T03:41:19.429Z,0.0000
2019-05-14T03:42:22.271Z,0.0000
2019-05-14T03:43:25.332Z,0.0000
2019-05-14T03:44:29.112Z,0.0000
2019-05-14T03:45:32.339Z,0.0000
2019-05-14T03:46:45.678Z,0.0000
2019-05-14T03:47:43.309Z,0.0000
2019-05-14T03:48:49.038Z,0.0000
2019-05-14T03:49:52.284Z,0.0000
2019-05-14T03:50:55.313Z,0.0000
2019-05-14T03:52:00.452Z,0.0000
2019-05-14T03:53:03.318Z,0.0000
2019-05-14T03:54:11.390Z,0.0000
2019-05-14T03:55:14.281Z,0.0000
2019-05-14T03:56:19.237Z,0.0000
2019-05-14T03:57:22.286Z,0.0000
2019-05-14T03:58:25.298Z,0.0000
2019-05-14T03:59:29.307Z,0.1115
2019-05-14T04:00:32.290Z,0.0000
2019-05-14T04:01:35.275Z,0.0000
2019-05-14T04:02:39.116Z,0.0000
2019-05-14T04:03:42.313Z,0.0000
2019-05-14T04:04:45.308Z,0.0000
2019-05-14T04:05:49.382Z,0.0000
2019-05-14T04:06:52.305Z,0.0000
2019-05-14T04:07:55.307Z,0.0000
2019-05-14T04:09:00.626Z,0.0000
2019-05-14T04:10:04.287Z,0.0000
2019-05-14T04:11:09.624Z,0.0000
2019-05-14T04:12:13.297Z,0.0000
2019-05-14T04:13:19.585Z,0.0000
2019-05-14T04:14:23.296Z,0.0000
2019-05-14T04:15:29.643Z,0.0000
2019-05-14T04:16:33.332Z,0.0000
2019-05-14T04:17:38.783Z,0.0000
2019-05-14T04:18:44.326Z,0.0000
2019-05-14T04:19:49.270Z,0.0000
2019-05-14T04:20:52.300Z,0.0000
2019-05-14T04:21:55.313Z,0.0000
2019-05-14T04:23:00.006Z,0.0000
2019-05-14T04:24:03.330Z,0.0000
2019-05-14T04:25:06.300Z,0.0000
2019-05-14T04:26:09.584Z,0.0160
2019-05-14T04:27:13.126Z,0.0000
2019-05-14T04:28:19.288Z,0.0000
2019-05-14T04:29:22.291Z,0.0152
2019-05-14T04:30:25.327Z,0.0000
2019-05-14T04:31:29.831Z,0.0000
2019-05-14T04:32:33.413Z,0.0000
2019-05-14T04:33:39.051Z,0.0000
2019-05-14T04:34:41.305Z,0.0000
2019-05-14T04:35:44.274Z,0.0000
2019-05-14T04:36:50.076Z,0.0000
2019-05-14T04:37:53.287Z,0.0000
2019-05-14T04:38:56.299Z,0.0000
2019-05-14T04:39:59.470Z,0.0000
2019-05-14T04:41:02.312Z,0.0000
2019-05-14T04:42:05.310Z,0.0000
2019-05-14T04:43:10.153Z,0.0000
2019-05-14T04:44:13.331Z,0.0000
2019-05-14T04:45:19.414Z,0.0000
2019-05-14T04:46:22.289Z,0.0000
2019-05-14T04:47:31.862Z,0.0000
2019-05-14T04:48:37.596Z,0.0000
2019-05-14T04:49:41.378Z,0.0000
2019-05-14T04:50:44.292Z,0.0000
2019-05-14T04:51:50.180Z,0.0000
2019-05-14T04:52:53.281Z,0.0000
2019-05-14T04:53:59.613Z,0.0000
2019-05-14T04:55:03.324Z,0.0000
2019-05-14T04:56:08.732Z,0.0000
2019-05-14T04:57:12.296Z,0.0000
2019-05-14T04:58:15.322Z,0.0000
2019-05-14T04:59:19.135Z,0.0000
2019-05-14T05:00:22.299Z,0.0000
2019-05-14T05:01:25.359Z,0.0000
2019-05-14T05:02:30.110Z,0.0000
2019-05-14T05:03:33.286Z,0.0000
2019-05-14T05:04:36.301Z,0.0000
2019-05-14T05:05:39.531Z,0.0000
2019-05-14T05:06:42.318Z,0.0000
2019-05-14T05:07:45.326Z,0.0000
2019-05-14T05:08:49.806Z,0.0000
2019-05-14T05:09:53.319Z,0.0000
2019-05-14T05:10:59.658Z,0.0160
2019-05-14T05:12:03.317Z,0.0000
2019-05-14T05:13:09.031Z,0.0478
2019-05-14T05:14:12.308Z,0.0000
2019-05-14T05:15:14.329Z,0.0000
2019-05-14T05:16:19.224Z,0.0000
2019-05-14T05:17:38.920Z,0.0000
2019-05-14T05:18:32.302Z,0.0000
2019-05-14T05:19:35.354Z,0.0000
2019-05-14T05:20:39.444Z,0.0160
2019-05-14T05:21:42.287Z,0.0000
2019-05-14T05:22:45.299Z,0.0000
2019-05-14T05:23:49.221Z,0.0000
2019-05-14T05:24:52.361Z,0.0000
2019-05-14T05:25:55.299Z,0.0160
2019-05-14T05:26:58.619Z,0.0000
2019-05-14T05:28:01.303Z,0.0317
2019-05-14T05:29:07.208Z,0.0000
2019-05-14T05:30:12.339Z,0.0000
2019-05-14T05:31:15.305Z,0.0000
2019-05-14T05:32:19.412Z,0.0320
2019-05-14T05:33:23.305Z,0.0000
2019-05-14T05:34:28.288Z,0.0158
2019-05-14T05:35:31.311Z,0.0309
2019-05-14T05:36:34.300Z,0.1919
2019-05-14T05:37:38.447Z,0.0479
2019-05-14T05:38:42.310Z,0.0467
2019-05-14T05:39:45.308Z,0.0475
2019-05-14T05:40:48.685Z,0.0000
2019-05-14T05:41:51.311Z,0.0000
2019-05-14T05:42:54.300Z,0.1128
2019-05-14T05:43:58.915Z,0.1757
2019-05-14T05:45:02.303Z,0.3411
2019-05-14T05:46:05.329Z,0.0956
2019-05-14T05:47:09.269Z,0.0000
2019-05-14T05:48:12.303Z,0.0000
2019-05-14T05:49:15.288Z,0.0481
2019-05-14T05:50:19.379Z,0.0000
2019-05-14T05:51:23.332Z,0.0156
2019-05-14T05:52:28.239Z,0.0000
2019-05-14T05:53:31.275Z,0.1231
2019-05-14T05:54:34.291Z,0.0161
2019-05-14T05:55:39.275Z,0.2076
2019-05-14T05:56:42.358Z,0.0462
2019-05-14T05:57:45.334Z,0.1443
2019-05-14T05:58:48.952Z,0.0958
2019-05-14T05:59:52.309Z,0.2676
2019-05-14T06:00:55.287Z,0.3028
2019-05-14T06:01:58.800Z,0.3034
2019-05-14T06:03:02.310Z,0.0948
2019-05-14T06:04:05.295Z,0.0159
2019-05-14T06:05:08.334Z,0.2716
2019-05-14T06:06:13.388Z,0.1754
2019-05-14T06:07:18.392Z,0.0461
2019-05-14T06:08:21.304Z,0.1087
2019-05-14T06:09:24.334Z,0.0160
2019-05-14T06:10:29.179Z,0.2074
2019-05-14T06:11:32.322Z,0.3704
2019-05-14T06:12:34.339Z,0.5762
2019-05-14T06:13:39.016Z,0.2270
2019-05-14T06:14:42.281Z,0.2011
2019-05-14T06:15:48.818Z,0.1598
2019-05-14T06:16:53.321Z,0.6956
2019-05-14T06:18:13.359Z,0.3825
2019-05-14T06:19:08.201Z,0.0592
2019-05-14T06:20:11.292Z,0.5235
2019-05-14T06:21:14.303Z,0.3843
2019-05-14T06:22:18.924Z,0.2714
2019-05-14T06:23:22.351Z,0.2632
2019-05-14T06:24:25.319Z,0.0319
2019-05-14T06:25:31.336Z,0.1118
2019-05-14T06:26:34.317Z,0.1061
2019-05-14T06:27:38.070Z,0.0161
2019-05-14T06:28:41.141Z,0.0314
2019-05-14T06:29:44.278Z,0.0000
2019-05-14T06:30:48.413Z,0.2881
2019-05-14T06:31:51.292Z,0.4220
2019-05-14T06:32:54.351Z,0.3529
2019-05-14T06:33:59.109Z,0.3509
2019-05-14T06:35:02.333Z,0.7103
2019-05-14T06:36:08.716Z,0.9277
2019-05-14T06:37:12.336Z,0.4527
2019-05-14T06:38:15.314Z,0.2064
2019-05-14T06:39:18.419Z,0.2874
2019-05-14T06:40:21.344Z,0.7010
2019-05-14T06:41:24.294Z,0.8788
2019-05-14T06:42:28.507Z,0.4635
2019-05-14T06:43:32.350Z,0.3424
2019-05-14T06:44:35.305Z,0.6334
2019-05-14T06:45:39.143Z,0.7995
2019-05-14T06:46:43.356Z,0.4701
2019-05-14T06:47:48.621Z,0.3149
2019-05-14T06:48:52.362Z,0.0614
2019-05-14T06:49:55.303Z,0.6020
2019-05-14T06:50:58.536Z,0.6550
2019-05-14T06:52:01.312Z,0.1584
2019-05-14T06:53:04.295Z,0.4343
2019-05-14T06:54:09.206Z,0.4311
2019-05-14T06:55:12.295Z,1.3251
2019-05-14T06:56:18.802Z,0.6891
2019-05-14T06:57:23.278Z,0.5771
2019-05-14T06:58:26.304Z,1.1652
2019-05-14T06:59:29.357Z,0.6862
2019-05-14T07:00:31.348Z,0.7017
2019-05-14T07:01:34.317Z,1.1194
2019-05-14T07:02:43.240Z,1.1978
2019-05-14T07:03:45.337Z,0.3554
2019-05-14T07:04:48.541Z,0.8924
2019-05-14T07:05:51.319Z,0.7142
2019-05-14T07:06:54.298Z,0.2731
2019-05-14T07:07:59.704Z,0.6385
2019-05-14T07:09:03.300Z,1.1661
2019-05-14T07:10:08.739Z,0.8719
2019-05-14T07:11:12.252Z,0.8712
2019-05-14T07:12:15.331Z,0.5413
2019-05-14T07:13:18.939Z,0.3507
2019-05-14T07:14:21.302Z,0.8512
2019-05-14T07:15:24.336Z,0.9381
2019-05-14T07:16:28.682Z,0.5585
2019-05-14T07:17:32.302Z,0.4497
2019-05-14T07:18:46.398Z,1.0674
2019-05-14T07:19:43.351Z,0.6807
2019-05-14T07:20:48.359Z,1.0837
2019-05-14T07:21:51.314Z,0.3544
2019-05-14T07:22:54.308Z,0.8342
2019-05-14T07:23:56.317Z,1.0537
2019-05-14T07:24:59.328Z,0.7299
2019-05-14T07:26:02.292Z,0.8775
2019-05-14T07:27:05.324Z,1.0859
2019-05-14T07:28:08.860Z,0.3990
2019-05-14T07:29:12.312Z,0.5995
2019-05-14T07:30:15.323Z,0.7472
2019-05-14T07:31:18.793Z,0.8139
2019-05-14T07:32:22.284Z,0.7590
2019-05-14T07:33:25.510Z,1.4112
2019-05-14T07:34:28.440Z,1.0942
2019-05-14T07:35:31.327Z,1.0267
2019-05-14T07:36:34.339Z,0.9279
2019-05-14T07:37:39.703Z,0.9255
2019-05-14T07:38:43.327Z,0.7819
2019-05-14T07:39:48.506Z,0.7140
2019-05-14T07:40:52.343Z,0.4450
2019-05-14T07:41:55.282Z,0.5860
2019-05-14T07:42:58.430Z,1.4223
2019-05-14T07:44:01.297Z,1.4162
2019-05-14T07:45:04.300Z,0.5923
2019-05-14T07:46:08.515Z,1.8834
2019-05-14T07:47:12.319Z,1.2301
2019-05-14T07:48:15.318Z,0.3172
2019-05-14T07:49:18.567Z,0.1117
2019-05-14T07:50:21.362Z,0.8084
2019-05-14T07:51:24.303Z,0.3855
2019-05-14T07:52:28.517Z,0.6391
2019-05-14T07:53:38.793Z,0.6854
2019-05-14T07:54:40.299Z,0.8971
2019-05-14T07:55:43.360Z,0.8454
2019-05-14T07:56:49.075Z,0.9886
2019-05-14T07:57:54.294Z,0.7720
2019-05-14T07:58:58.468Z,0.7956
2019-05-14T08:00:03.328Z,1.0014
2019-05-14T08:01:06.325Z,1.1536
2019-05-14T08:02:09.517Z,1.0058
2019-05-14T08:03:12.291Z,1.4480
2019-05-14T08:04:17.217Z,1.2498
2019-05-14T08:05:22.310Z,0.9459
2019-05-14T08:06:24.388Z,1.3237
2019-05-14T08:07:28.180Z,1.1506
2019-05-14T08:08:31.291Z,0.4232
2019-05-14T08:09:34.300Z,1.1858
2019-05-14T08:10:36.328Z,0.7342
2019-05-14T08:11:38.865Z,1.4265
2019-05-14T08:12:42.325Z,1.9426
2019-05-14T08:13:45.345Z,0.4922
2019-05-14T08:15:09.032Z,1.3402
2019-05-14T08:15:55.323Z,2.0437
2019-05-14T08:16:59.554Z,0.8932
2019-05-14T08:18:03.293Z,1.1057
2019-05-14T08:19:20.885Z,1.2690
2019-05-14T08:20:14.337Z,0.7845
2019-05-14T08:21:19.351Z,1.2110
2019-05-14T08:22:23.337Z,1.2598
2019-05-14T08:23:28.207Z,0.5539
2019-05-14T08:24:31.286Z,0.5394
2019-05-14T08:25:34.315Z,0.6418
2019-05-14T08:26:38.181Z,0.8295
2019-05-14T08:27:41.367Z,0.5791
2019-05-14T08:28:44.284Z,0.5446
2019-05-14T08:29:48.703Z,0.4156
2019-05-14T08:30:52.302Z,0.8054
2019-05-14T08:31:55.337Z,1.0999
2019-05-14T08:32:58.419Z,1.1964
2019-05-14T08:34:04.633Z,0.7651
2019-05-14T08:35:09.082Z,1.4855
2019-05-14T08:36:12.295Z,0.7092
2019-05-14T08:37:15.292Z,0.3191
2019-05-14T08:38:18.539Z,0.9418
2019-05-14T08:39:22.258Z,0.8387
2019-05-14T08:40:25.324Z,1.2686
2019-05-14T08:41:28.780Z,0.6540
2019-05-14T08:42:34.062Z,1.7943
2019-05-14T08:43:39.791Z,0.8000
2019-05-14T08:44:47.937Z,0.4455
2019-05-14T08:45:53.312Z,1.0737
2019-05-14T08:46:58.436Z,1.1161
2019-05-14T08:48:02.317Z,1.1328
2019-05-14T08:49:05.340Z,2.1457
2019-05-14T08:50:09.116Z,0.3990
2019-05-14T08:51:12.393Z,0.5799
2019-05-14T08:52:18.969Z,1.4072
2019-05-14T08:53:22.334Z,0.6757
2019-05-14T08:54:25.335Z,0.9901
2019-05-14T08:55:29.666Z,0.7983
2019-05-14T08:56:33.305Z,0.4201
2019-05-14T08:57:38.611Z,1.1111
2019-05-14T08:58:42.323Z,0.8743
2019-05-14T08:59:45.337Z,0.8243
2019-05-14T09:00:48.479Z,0.7182
2019-05-14T09:02:01.792Z,0.7954
2019-05-14T09:02:59.327Z,0.4606
2019-05-14T09:04:02.305Z,1.0202
2019-05-14T09:05:05.502Z,1.4850
2019-05-14T09:06:10.367Z,0.7422
2019-05-14T09:07:13.341Z,1.2768
2019-05-14T09:08:18.957Z,1.2294
2019-05-14T09:09:22.325Z,2.4010
2019-05-14T09:10:25.366Z,1.5010
2019-05-14T09:11:35.026Z,1.9194
2019-05-14T09:12:38.617Z,1.0499
2019-05-14T09:13:42.355Z,1.2282
2019-05-14T09:14:45.324Z,0.9030
2019-05-14T09:15:48.928Z,0.3674
2019-05-14T09:16:52.358Z,1.3031
2019-05-14T09:17:55.314Z,0.7504
2019-05-14T09:18:58.278Z,1.2623
2019-05-14T09:20:06.735Z,1.6769
2019-05-14T09:21:09.296Z,0.7988
2019-05-14T09:22:12.373Z,1.0050
2019-05-14T09:23:15.296Z,1.3551
2019-05-14T09:24:18.377Z,2.1579
2019-05-14T09:25:21.292Z,1.7374
2019-05-14T09:26:24.325Z,1.6787
2019-05-14T09:27:29.246Z,0.4468
2019-05-14T09:28:32.303Z,1.0654
2019-05-14T09:29:35.335Z,1.5040
2019-05-14T09:30:38.333Z,1.0366
2019-05-14T09:31:41.342Z,2.4276
2019-05-14T09:32:44.354Z,0.7659
2019-05-14T09:33:49.480Z,2.0422
2019-05-14T09:34:52.322Z,1.6303
2019-05-14T09:36:09.554Z,1.4308
2019-05-14T09:37:03.354Z,1.0212
2019-05-14T09:38:08.510Z,0.4782
2019-05-14T09:39:12.257Z,1.1224
2019-05-14T09:40:14.381Z,0.8035
2019-05-14T09:41:18.549Z,1.5463
2019-05-14T09:42:21.286Z,1.1554
2019-05-14T09:43:24.346Z,1.3678
2019-05-14T09:44:29.317Z,0.8451
2019-05-14T09:45:32.319Z,1.1556
2019-05-14T09:46:35.351Z,1.1712
2019-05-14T09:47:38.736Z,1.4992
2019-05-14T09:48:42.279Z,0.7082
2019-05-14T09:49:45.310Z,1.0212
2019-05-14T09:50:48.977Z,0.9893
2019-05-14T09:51:52.318Z,1.3049
2019-05-14T09:52:55.336Z,1.1647
2019-05-14T09:53:58.926Z,1.8513
2019-05-14T09:55:02.339Z,0.5670
2019-05-14T09:56:05.359Z,1.3690
2019-05-14T09:57:08.495Z,1.1175
2019-05-14T09:58:11.311Z,1.2259
2019-05-14T09:59:14.316Z,0.7687
2019-05-14T10:00:18.683Z,0.7982
2019-05-14T10:01:22.355Z,1.0401
2019-05-14T10:02:25.316Z,0.9062
2019-05-14T10:03:27.312Z,0.7666
2019-05-14T10:04:30.361Z,1.2490
2019-05-14T10:05:33.274Z,2.4884
2019-05-14T10:06:39.015Z,1.5344
2019-05-14T10:07:42.291Z,0.8047
2019-05-14T10:08:45.321Z,1.5055
2019-05-14T10:09:49.184Z,1.0530
2019-05-14T10:10:52.310Z,0.9392
2019-05-14T10:11:55.337Z,1.1701
2019-05-14T10:13:01.350Z,0.9575
2019-05-14T10:14:05.328Z,0.7407
2019-05-14T10:15:08.843Z,0.4754
2019-05-14T10:16:12.320Z,0.8839
2019-05-14T10:17:15.358Z,2.2094
2019-05-14T10:18:19.039Z,0.9888
2019-05-14T10:19:22.314Z,0.9267
2019-05-14T10:20:40.238Z,1.1497
2019-05-14T10:21:33.311Z,0.8890
2019-05-14T10:22:36.369Z,1.9774
2019-05-14T10:23:39.280Z,1.5467
2019-05-14T10:24:42.317Z,1.8070
2019-05-14T10:25:45.346Z,3.0311
2019-05-14T10:26:49.156Z,1.8028
2019-05-14T10:27:52.367Z,1.1460
2019-05-14T10:28:54.307Z,0.8145
2019-05-14T10:29:58.859Z,1.8022
2019-05-14T10:31:03.808Z,0.6823
2019-05-14T10:32:08.737Z,0.6197
2019-05-14T10:33:15.082Z,1.6977
2019-05-14T10:34:19.228Z,1.4749
2019-05-14T10:35:22.301Z,1.5195
2019-05-14T10:36:25.283Z,0.8176
2019-05-14T10:37:28.792Z,0.6547
2019-05-14T10:38:32.329Z,1.1656
2019-05-14T10:39:35.352Z,1.3527
2019-05-14T10:40:38.701Z,1.1326
2019-05-14T10:41:42.335Z,1.1370
2019-05-14T10:42:44.358Z,0.8898
2019-05-14T10:43:49.736Z,2.1408
2019-05-14T10:44:53.285Z,2.5771
2019-05-14T10:45:58.001Z,1.6820
2019-05-14T10:47:01.322Z,1.5323
2019-05-14T10:48:04.351Z,0.8931
2019-05-14T10:49:19.996Z,1.8986
2019-05-14T10:50:15.331Z,0.9771
2019-05-14T10:51:18.354Z,1.1005
2019-05-14T10:52:23.313Z,1.2927
2019-05-14T10:53:25.377Z,0.9135
2019-05-14T10:54:29.268Z,1.1663
2019-05-14T10:55:32.317Z,0.5009
2019-05-14T10:56:35.278Z,1.1552
2019-05-14T10:57:38.305Z,1.5016
2019-05-14T10:58:41.348Z,0.8937
2019-05-14T10:59:44.300Z,0.9410
2019-05-14T11:00:49.309Z,1.5978
2019-05-14T11:01:54.352Z,0.8903
2019-05-14T11:02:57.329Z,1.4490
2019-05-14T11:04:00.314Z,1.8043
2019-05-14T11:05:03.301Z,2.0275
2019-05-14T11:06:06.333Z,1.3254
2019-05-14T11:07:09.314Z,1.1485
2019-05-14T11:08:12.314Z,1.0700
2019-05-14T11:09:15.304Z,0.1916
2019-05-14T11:10:19.523Z,0.4789
2019-05-14T11:11:22.286Z,0.8908
2019-05-14T11:12:25.357Z,0.6584
2019-05-14T11:13:29.242Z,0.9885
2019-05-14T11:14:32.362Z,0.9545
2019-05-14T11:15:35.336Z,1.0260
2019-05-14T11:16:41.790Z,0.7983
2019-05-14T11:17:45.267Z,0.3614
2019-05-14T11:18:49.744Z,0.8756
2019-05-14T11:19:53.361Z,1.1480
2019-05-14T11:21:16.171Z,0.9860
2019-05-14T11:22:04.318Z,1.4665
2019-05-14T11:23:08.979Z,0.7973
2019-05-14T11:24:12.329Z,1.2392
2019-05-14T11:25:15.313Z,1.1797
2019-05-14T11:26:18.427Z,1.2454
2019-05-14T11:27:22.297Z,1.7093
2019-05-14T11:28:25.267Z,0.9986
2019-05-14T11:29:29.580Z,0.3513
2019-05-14T11:30:33.315Z,0.7919
2019-05-14T11:31:38.872Z,0.5721
2019-05-14T11:32:42.321Z,0.9459
2019-05-14T11:33:45.306Z,1.5781
2019-05-14T11:34:48.341Z,1.1972
2019-05-14T11:35:51.306Z,1.1966
2019-05-14T11:36:54.324Z,0.4154
2019-05-14T11:37:58.866Z,0.7022
2019-05-14T11:39:04.018Z,1.4754
2019-05-14T11:40:08.743Z,0.4919
2019-05-14T11:41:12.337Z,1.0903
2019-05-14T11:42:15.306Z,1.4937
2019-05-14T11:43:18.341Z,0.7347
2019-05-14T11:44:21.301Z,0.5424
2019-05-14T11:45:23.305Z,0.8465
2019-05-14T11:46:39.977Z,0.8758
2019-05-14T11:47:34.319Z,0.5773
2019-05-14T11:48:38.948Z,0.5262
2019-05-14T11:49:42.349Z,1.0654
2019-05-14T11:50:45.324Z,1.6153
2019-05-14T11:52:00.722Z,1.1816
2019-05-14T11:52:58.331Z,0.9615
2019-05-14T11:54:01.285Z,1.7203
2019-05-14T11:55:04.334Z,0.6436
2019-05-14T11:56:08.629Z,0.7658
2019-05-14T11:57:12.307Z,1.2570
2019-05-14T11:58:15.379Z,1.5601
2019-05-14T11:59:18.969Z,1.2273
2019-05-14T12:00:25.719Z,0.8011
2019-05-14T12:01:29.787Z,1.0112
2019-05-14T12:02:33.267Z,1.4915
2019-05-14T12:03:39.043Z,0.7483
2019-05-14T12:04:42.317Z,0.7287
2019-05-14T12:05:45.279Z,1.6013
2019-05-14T12:06:48.288Z,0.9902
2019-05-14T12:07:51.290Z,0.4629
2019-05-14T12:08:54.298Z,1.2930
2019-05-14T12:09:57.346Z,1.2290
2019-05-14T12:11:00.332Z,0.9571
2019-05-14T12:12:03.279Z,0.8462
2019-05-14T12:13:08.402Z,1.1978
2019-05-14T12:14:12.340Z,0.5368
2019-05-14T12:15:15.297Z,0.6971
2019-05-14T12:16:18.328Z,0.6390
2019-05-14T12:17:21.388Z,0.5902
2019-05-14T12:18:24.298Z,0.3509
2019-05-14T12:19:28.371Z,0.7995
2019-05-14T12:20:31.352Z,0.5638
2019-05-14T12:21:34.308Z,1.0561
2019-05-14T12:22:39.356Z,1.0381
2019-05-14T12:23:42.323Z,1.0299
2019-05-14T12:24:45.336Z,1.1250
2019-05-14T12:25:49.063Z,1.1329
2019-05-14T12:26:52.290Z,0.6271
2019-05-14T12:27:55.309Z,0.6566
2019-05-14T12:28:59.409Z,0.8137
2019-05-14T12:30:01.338Z,1.5943
2019-05-14T12:31:04.303Z,2.1030
2019-05-14T12:32:12.804Z,1.2302
2019-05-14T12:33:15.311Z,1.1391
2019-05-14T12:34:18.595Z,1.5473
2019-05-14T12:35:21.316Z,0.8872
2019-05-14T12:36:24.308Z,2.2033
2019-05-14T12:37:28.941Z,2.8421
2019-05-14T12:38:32.266Z,1.1018
2019-05-14T12:39:35.252Z,0.6370
2019-05-14T12:40:38.435Z,0.5269
2019-05-14T12:41:41.293Z,0.7000
2019-05-14T12:42:44.299Z,0.5442
2019-05-14T12:43:47.330Z,1.0376
2019-05-14T12:44:50.315Z,0.7654
2019-05-14T12:45:53.361Z,0.9743
2019-05-14T12:46:58.592Z,0.8137
2019-05-14T12:48:02.309Z,1.8085
2019-05-14T12:49:05.315Z,0.7775
2019-05-14T12:50:09.367Z,1.3416
2019-05-14T12:51:12.346Z,0.5931
2019-05-14T12:52:22.211Z,1.4622
2019-05-14T12:53:23.342Z,1.2585
2019-05-14T12:54:29.462Z,1.0523
2019-05-14T12:55:32.376Z,1.4678
2019-05-14T12:56:35.351Z,1.4457
2019-05-14T12:57:39.573Z,1.1823
2019-05-14T12:58:45.810Z,0.9319
2019-05-14T12:59:49.299Z,1.3569
2019-05-14T13:00:52.389Z,1.3991
2019-05-14T13:01:55.384Z,1.1477
2019-05-14T13:02:58.474Z,1.0378
2019-05-14T13:04:02.307Z,1.0602
2019-05-14T13:05:05.340Z,1.3171
2019-05-14T13:06:10.060Z,1.9786
2019-05-14T13:07:13.343Z,0.2933
2019-05-14T13:08:18.444Z,0.2240
2019-05-14T13:09:21.809Z,0.7855
2019-05-14T13:10:24.339Z,1.4293
2019-05-14T13:11:27.343Z,0.7414
2019-05-14T13:12:30.284Z,0.4311
2019-05-14T13:13:33.358Z,0.3195
2019-05-14T13:14:39.200Z,1.0207
2019-05-14T13:15:41.330Z,0.4241